createdAt,value
2022-12-19T00:00:45.712Z,16.37
2022-12-19T00:03:14.236Z,21.33
2022-12-19T00:05:43.617Z,17.50
2022-12-19T00:08:18.156Z,19.10
2022-12-19T00:10:57.793Z,16.53
2022-12-19T00:13:27.300Z,20.73
2022-12-19T00:16:02.181Z,19.17
2022-12-19T00:18:30.679Z,18.80
2022-12-19T00:21:01.438Z,16.03
2022-12-19T00:23:32.518Z,17.73
2022-12-19T00:26:15.313Z,18.07
2022-12-19T00:28:46.520Z,17.00
2022-12-19T00:31:16.660Z,19.07
2022-12-19T00:33:45.694Z,17.30
2022-12-19T00:36:17.029Z,16.57
2022-12-19T00:38:53.300Z,17.40
2022-12-19T00:41:25.465Z,16.73
2022-12-19T00:43:55.259Z,17.30
2022-12-19T00:46:23.891Z,17.87
2022-12-19T00:48:52.268Z,17.97
2022-12-19T00:51:24.380Z,19.33
2022-12-19T00:53:54.514Z,20.27
2022-12-19T00:56:27.304Z,18.07
2022-12-19T00:58:56.397Z,18.63
2022-12-19T01:01:28.052Z,19.87
2022-12-19T01:04:27.090Z,16.50
2022-12-19T01:06:46.632Z,20.00
2022-12-19T01:09:15.562Z,18.37
2022-12-19T01:12:02.562Z,17.20
2022-12-19T01:14:30.708Z,18.60
2022-12-19T01:16:58.833Z,20.07
2022-12-19T01:19:28.692Z,17.30
2022-12-19T01:21:56.803Z,16.60
2022-12-19T01:24:24.932Z,16.70
2022-12-19T01:26:54.445Z,16.83
2022-12-19T01:29:22.576Z,18.13
2022-12-19T01:31:50.849Z,20.43
2022-12-19T01:34:18.986Z,17.83
2022-12-19T01:36:47.117Z,17.10
2022-12-19T01:39:15.233Z,17.00
2022-12-19T01:41:43.348Z,16.23
2022-12-19T01:44:12.802Z,15.40
2022-12-19T01:46:45.665Z,16.83
2022-12-19T01:49:28.186Z,17.57
2022-12-19T01:52:01.170Z,14.10
2022-12-19T01:54:37.251Z,15.63
2022-12-19T01:57:11.883Z,14.63
2022-12-19T01:59:47.247Z,15.27
2022-12-19T02:02:22.648Z,13.80
2022-12-19T02:04:50.779Z,12.60
2022-12-19T02:07:23.481Z,14.70
2022-12-19T02:09:56.850Z,14.50
2022-12-19T02:12:27.745Z,13.43
2022-12-19T02:15:02.632Z,15.30
2022-12-19T02:17:47.206Z,14.60
2022-12-19T02:21:21.961Z,13.63
2022-12-19T02:24:38.565Z,11.67
2022-12-19T02:27:57.845Z,13.47
2022-12-19T02:30:55.768Z,14.27
2022-12-19T02:33:36.951Z,13.83
2022-12-19T02:36:16.417Z,12.73
2022-12-19T02:38:55.090Z,12.73
2022-12-19T02:41:28.172Z,12.53
2022-12-19T02:43:59.640Z,11.67
2022-12-19T02:46:30.450Z,13.97
2022-12-19T02:48:59.471Z,13.20
2022-12-19T02:51:27.596Z,10.53
2022-12-19T02:53:55.881Z,11.47
2022-12-19T02:56:49.093Z,11.90
2022-12-19T02:59:36.890Z,12.87
2022-12-19T03:02:20.470Z,12.40
2022-12-19T03:04:59.926Z,10.80
2022-12-19T03:07:37.427Z,11.37
2022-12-19T03:10:19.694Z,11.17
2022-12-19T03:12:54.631Z,10.57
2022-12-19T03:15:24.773Z,13.03
2022-12-19T03:17:58.015Z,11.87
2022-12-19T03:20:37.888Z,13.57
2022-12-19T03:23:06.184Z,12.87
2022-12-19T03:25:36.743Z,13.67
2022-12-19T03:28:12.886Z,13.30
2022-12-19T03:30:45.456Z,14.90
2022-12-19T03:33:19.485Z,15.23
2022-12-19T03:35:50.587Z,16.27
2022-12-19T03:38:22.643Z,13.50
2022-12-19T03:40:52.127Z,13.87
2022-12-19T03:43:22.675Z,17.23
2022-12-19T03:46:03.168Z,14.43
2022-12-19T03:48:43.349Z,13.43
2022-12-19T03:51:28.352Z,13.90
2022-12-19T03:54:04.210Z,14.73
2022-12-19T03:56:42.318Z,16.07
2022-12-19T03:59:20.461Z,15.30
2022-12-19T04:01:50.996Z,14.00
2022-12-19T04:04:22.753Z,14.93
2022-12-19T04:06:52.257Z,14.90
2022-12-19T04:09:24.573Z,12.90
2022-12-19T04:12:00.330Z,17.60
2022-12-19T04:14:31.777Z,13.90
2022-12-19T04:17:15.621Z,13.47
2022-12-19T04:19:57.380Z,16.53
2022-12-19T04:22:32.209Z,13.23
2022-12-19T04:25:06.421Z,14.13
2022-12-19T04:27:38.136Z,16.90
2022-12-19T04:30:13.832Z,14.50
2022-12-19T04:32:48.493Z,15.73
2022-12-19T04:35:18.688Z,13.70
2022-12-19T04:37:47.138Z,13.77
2022-12-19T04:40:15.791Z,17.40
2022-12-19T04:42:43.880Z,19.30
2022-12-19T04:45:12.677Z,17.00
2022-12-19T04:47:40.953Z,15.63
2022-12-19T04:50:10.968Z,15.33
2022-12-19T04:52:40.504Z,18.73
2022-12-19T04:55:10.368Z,14.67
2022-12-19T04:57:38.489Z,17.37
2022-12-19T05:00:08.643Z,15.63
2022-12-19T05:02:36.918Z,16.10
2022-12-19T05:05:05.957Z,13.67
2022-12-19T05:07:34.056Z,18.10
2022-12-19T05:10:03.562Z,15.77
2022-12-19T05:12:31.732Z,19.43
2022-12-19T05:14:59.856Z,20.03
2022-12-19T05:17:27.982Z,14.53
2022-12-19T05:19:56.324Z,15.37
2022-12-19T05:22:24.669Z,16.43
2022-12-19T05:24:52.827Z,14.83
2022-12-19T05:27:22.494Z,19.13
2022-12-19T05:29:50.603Z,16.97
2022-12-19T05:32:18.813Z,15.33
2022-12-19T05:34:46.924Z,16.57
2022-12-19T05:37:15.092Z,16.80
2022-12-19T05:39:43.188Z,20.17
2022-12-19T05:42:12.682Z,16.67
2022-12-19T05:44:42.272Z,16.70
2022-12-19T05:47:10.372Z,16.20
2022-12-19T05:49:45.703Z,17.03
2022-12-19T05:52:13.846Z,16.47
2022-12-19T05:54:41.927Z,16.10
2022-12-19T05:57:10.048Z,17.67
2022-12-19T05:59:38.165Z,20.63
2022-12-19T06:02:07.757Z,19.00
2022-12-19T06:04:39.010Z,14.27
2022-12-19T06:07:07.176Z,16.90
2022-12-19T06:09:35.349Z,14.80
2022-12-19T06:12:03.635Z,15.87
2022-12-19T06:14:31.795Z,16.93
2022-12-19T06:17:00.032Z,15.53
2022-12-19T06:19:31.225Z,19.37
2022-12-19T06:21:59.342Z,17.00
2022-12-19T06:24:27.692Z,19.30
2022-12-19T06:26:55.821Z,26.47
2022-12-19T06:29:23.976Z,16.70
2022-12-19T06:31:53.093Z,16.10
2022-12-19T06:34:39.873Z,16.87
2022-12-19T06:37:11.680Z,17.07
2022-12-19T06:39:39.992Z,16.97
2022-12-19T06:42:24.419Z,20.60
2022-12-19T06:44:55.582Z,17.37
2022-12-19T06:47:25.637Z,15.70
2022-12-19T06:49:54.218Z,17.17
2022-12-19T06:52:23.777Z,16.47
2022-12-19T06:54:51.895Z,18.53
2022-12-19T06:57:19.901Z,17.03
2022-12-19T06:59:47.999Z,16.43
2022-12-19T07:02:29.601Z,17.30
2022-12-19T07:05:03.815Z,14.87
2022-12-19T07:07:34.530Z,17.83
2022-12-19T07:10:02.815Z,17.17
2022-12-19T07:12:30.898Z,15.73
2022-12-19T07:14:59.206Z,17.93
2022-12-19T07:17:29.638Z,17.53
2022-12-19T07:19:59.291Z,20.03
2022-12-19T07:22:35.383Z,15.63
2022-12-19T07:25:06.291Z,18.80
2022-12-19T07:27:36.142Z,16.70
2022-12-19T07:30:06.743Z,18.57
2022-12-19T07:32:35.319Z,17.20
2022-12-19T07:35:03.701Z,18.17
2022-12-19T07:37:33.176Z,16.37
2022-12-19T07:40:01.315Z,14.70
2022-12-19T07:42:32.689Z,16.13
2022-12-19T07:45:01.409Z,16.80
2022-12-19T07:47:29.613Z,20.83
2022-12-19T07:49:57.718Z,19.47
2022-12-19T07:52:26.494Z,18.23
2022-12-19T07:54:55.988Z,18.53
2022-12-19T07:57:24.042Z,17.67
2022-12-19T07:59:52.126Z,18.50
2022-12-19T08:02:20.319Z,17.30
2022-12-19T08:04:48.387Z,16.83
2022-12-19T08:07:16.480Z,16.47
2022-12-19T08:09:44.591Z,18.53
2022-12-19T08:12:14.040Z,16.10
2022-12-19T08:14:42.090Z,18.00
2022-12-19T08:17:20.125Z,16.47
2022-12-19T08:19:48.624Z,20.53
2022-12-19T08:22:16.693Z,18.17
2022-12-19T08:24:44.866Z,17.50
2022-12-19T08:27:14.354Z,19.50
2022-12-19T08:29:42.424Z,18.90
2022-12-19T08:32:13.367Z,21.67
2022-12-19T08:34:45.742Z,18.70
2022-12-19T08:37:13.802Z,17.57
2022-12-19T08:39:41.862Z,18.37
2022-12-19T08:42:09.901Z,17.87
2022-12-19T08:44:39.378Z,17.67
2022-12-19T08:47:07.464Z,21.10
2022-12-19T08:49:35.752Z,18.60
2022-12-19T08:52:03.905Z,16.80
2022-12-19T08:54:31.980Z,16.80
2022-12-19T08:57:00.096Z,19.30
2022-12-19T08:59:30.867Z,19.13
2022-12-19T09:02:01.910Z,17.53
2022-12-19T09:06:02.336Z,19.10
2022-12-19T09:07:19.035Z,19.13
2022-12-19T09:09:47.157Z,18.47
2022-12-19T09:12:17.494Z,20.43
2022-12-19T09:14:45.781Z,20.90
2022-12-19T09:17:15.468Z,20.13
2022-12-19T09:19:45.525Z,20.83
2022-12-19T09:22:17.499Z,21.70
2022-12-19T09:24:45.558Z,24.97
2022-12-19T09:27:14.243Z,21.43
2022-12-19T09:29:43.837Z,18.93
2022-12-19T09:32:12.374Z,19.13
2022-12-19T09:34:41.861Z,20.97
2022-12-19T09:37:16.812Z,17.40
2022-12-19T09:39:47.217Z,22.40
2022-12-19T09:43:01.147Z,20.33
2022-12-19T09:45:49.906Z,19.50
2022-12-19T09:48:24.751Z,19.70
2022-12-19T09:51:10.312Z,19.60
2022-12-19T09:53:58.579Z,21.57
2022-12-19T09:56:45.235Z,21.80
2022-12-19T09:59:23.332Z,20.47
2022-12-19T10:02:05.831Z,21.97
2022-12-19T10:04:37.440Z,20.30
2022-12-19T10:07:31.409Z,24.83
2022-12-19T10:12:46.089Z,21.13
2022-12-19T10:13:13.664Z,22.60
2022-12-19T10:16:00.230Z,22.20
2022-12-19T10:18:44.289Z,20.53
2022-12-19T10:21:58.841Z,22.07
2022-12-19T10:25:08.121Z,26.03
2022-12-19T10:27:59.888Z,23.90
2022-12-19T10:30:34.142Z,23.33
2022-12-19T10:33:20.218Z,22.67
2022-12-19T10:35:55.620Z,26.77
2022-12-19T10:38:38.380Z,25.87
2022-12-19T10:41:23.333Z,26.43
2022-12-19T10:44:03.150Z,20.63
2022-12-19T10:46:40.746Z,21.20
2022-12-19T10:49:16.629Z,24.63
2022-12-19T10:51:59.879Z,25.27
2022-12-19T10:54:39.711Z,23.40
2022-12-19T10:57:26.320Z,23.33
2022-12-19T11:00:00.117Z,25.30
2022-12-19T11:02:44.587Z,25.03
2022-12-19T11:05:27.348Z,27.60
2022-12-19T11:08:04.992Z,26.13
2022-12-19T11:11:14.377Z,25.40
2022-12-19T11:20:46.985Z,26.37
2022-12-19T11:24:54.590Z,25.27
2022-12-19T11:29:25.596Z,25.40
2022-12-19T11:29:30.188Z,25.53
2022-12-19T11:30:36.678Z,25.27
2022-12-19T11:30:49.025Z,28.63
2022-12-19T11:32:31.471Z,26.07
2022-12-19T11:34:17.768Z,25.57
2022-12-19T11:36:53.272Z,23.17
2022-12-19T11:39:30.559Z,27.83
2022-12-19T11:42:09.813Z,25.40
2022-12-19T11:44:48.550Z,28.30
2022-12-19T11:47:33.533Z,24.37
2022-12-19T11:50:11.138Z,27.80
2022-12-19T11:53:14.662Z,26.83
2022-12-19T11:55:46.135Z,25.77
2022-12-19T11:58:15.071Z,24.97
2022-12-19T12:00:55.305Z,27.67
2022-12-19T12:04:11.970Z,28.03
2022-12-19T12:06:54.259Z,27.33
2022-12-19T12:12:49.142Z,27.47
2022-12-19T12:19:55.589Z,27.33
2022-12-19T12:25:27.663Z,26.27
2022-12-19T12:31:07.646Z,26.83
2022-12-19T12:31:13.160Z,29.33
2022-12-19T12:31:46.929Z,29.30
2022-12-19T12:32:06.314Z,28.43
2022-12-19T12:35:31.722Z,26.87
2022-12-19T12:41:00.533Z,28.60
2022-12-19T12:43:55.797Z,27.83
2022-12-19T12:46:32.156Z,28.43
2022-12-19T12:49:05.143Z,26.87
2022-12-19T12:51:36.858Z,29.50
2022-12-19T12:54:12.619Z,29.27
2022-12-19T12:56:42.271Z,31.73
2022-12-19T12:59:26.874Z,28.73
2022-12-19T13:01:59.868Z,26.00
2022-12-19T13:04:35.817Z,28.07
2022-12-19T13:07:21.675Z,29.93
2022-12-19T13:10:08.096Z,28.83
2022-12-19T13:13:02.495Z,26.60
2022-12-19T13:15:48.387Z,29.73
2022-12-19T13:18:38.645Z,26.17
2022-12-19T13:21:10.635Z,25.23
2022-12-19T13:23:49.851Z,25.83
2022-12-19T13:26:49.471Z,27.23
2022-12-19T13:29:57.082Z,26.37
2022-12-19T13:32:25.235Z,27.33
2022-12-19T13:35:03.987Z,29.17
2022-12-19T13:39:55.431Z,31.10
2022-12-19T13:41:01.411Z,27.20
2022-12-19T13:43:46.344Z,29.43
2022-12-19T13:46:33.715Z,27.83
2022-12-19T13:49:07.914Z,30.20
2022-12-19T13:51:47.455Z,26.37
2022-12-19T13:54:26.967Z,25.33
2022-12-19T13:56:57.141Z,29.37
2022-12-19T13:59:32.198Z,28.17
2022-12-19T14:02:16.184Z,27.47
2022-12-19T14:04:46.562Z,26.60
2022-12-19T14:07:36.598Z,26.70
2022-12-19T14:11:35.013Z,29.30
2022-12-19T14:13:48.459Z,27.80
2022-12-19T14:16:07.975Z,26.17
2022-12-19T14:18:43.290Z,26.60
2022-12-19T14:22:11.515Z,29.67
2022-12-19T14:24:19.868Z,28.57
2022-12-19T14:28:24.714Z,29.30
2022-12-19T14:30:28.171Z,28.30
2022-12-19T14:33:46.563Z,28.00
2022-12-19T14:36:08.840Z,28.63
2022-12-19T14:39:26.346Z,29.47
2022-12-19T14:42:01.009Z,29.37
2022-12-19T14:54:06.296Z,28.93
2022-12-19T14:54:10.123Z,26.83
2022-12-19T14:54:16.121Z,30.33
2022-12-19T14:54:40.850Z,25.67
2022-12-19T14:56:46.749Z,28.80
2022-12-19T14:59:06.579Z,30.37
2022-12-19T15:01:36.923Z,27.60
2022-12-19T15:04:52.414Z,28.93
2022-12-19T15:07:12.136Z,31.27
2022-12-19T15:10:58.022Z,29.60
2022-12-19T15:14:49.362Z,27.00
2022-12-19T15:16:07.898Z,27.60
2022-12-19T15:18:42.287Z,27.37
2022-12-19T15:21:14.582Z,32.80
2022-12-19T15:23:45.764Z,30.30
2022-12-19T15:26:18.062Z,32.13
2022-12-19T15:28:50.074Z,29.53
2022-12-19T15:31:34.662Z,28.90
2022-12-19T15:34:34.965Z,28.70
2022-12-19T15:37:04.265Z,31.80
2022-12-19T15:39:33.870Z,29.10
2022-12-19T15:42:02.938Z,31.83
2022-12-19T15:44:35.836Z,29.87
2022-12-19T15:47:07.045Z,30.17
2022-12-19T15:49:35.988Z,31.63
2022-12-19T15:52:04.122Z,28.90
2022-12-19T15:54:50.552Z,29.93
2022-12-19T15:57:30.055Z,28.53
2022-12-19T16:00:01.395Z,32.13
2022-12-19T16:03:04.472Z,29.93
2022-12-19T16:05:23.513Z,28.13
2022-12-19T16:07:51.998Z,29.57
2022-12-19T16:10:21.841Z,28.83
2022-12-19T16:12:53.878Z,31.47
2022-12-19T16:15:27.546Z,32.23
2022-12-19T16:17:57.279Z,31.23
2022-12-19T16:20:28.486Z,27.17
2022-12-19T16:22:56.959Z,28.53
2022-12-19T16:25:35.879Z,31.57
2022-12-19T16:28:06.344Z,30.27
2022-12-19T16:30:35.930Z,28.97
2022-12-19T16:33:04.152Z,29.83
2022-12-19T16:36:03.063Z,31.27
2022-12-19T16:38:20.884Z,30.97
2022-12-19T16:40:52.360Z,29.53
2022-12-19T16:43:30.983Z,30.00
2022-12-19T16:46:01.819Z,30.60
2022-12-19T16:48:31.230Z,30.47
2022-12-19T16:51:00.663Z,31.60
2022-12-19T16:53:29.240Z,29.70
2022-12-19T16:56:00.880Z,30.03
2022-12-19T16:58:30.516Z,29.90
2022-12-19T17:00:58.882Z,29.77
2022-12-19T17:03:36.828Z,30.80
2022-12-19T17:06:05.650Z,30.60
2022-12-19T17:08:34.239Z,29.67
2022-12-19T17:11:03.869Z,29.77
2022-12-19T17:13:32.202Z,31.43
2022-12-19T17:16:01.486Z,34.43
2022-12-19T17:18:34.115Z,29.80
2022-12-19T17:21:02.606Z,33.83
2022-12-19T17:23:32.488Z,30.93
2022-12-19T17:26:01.267Z,32.93
2022-12-19T17:28:30.899Z,30.30
2022-12-19T17:31:03.461Z,27.27
2022-12-19T17:33:37.611Z,26.93
2022-12-19T17:36:08.246Z,26.77
2022-12-19T17:38:37.023Z,30.97
2022-12-19T17:41:05.121Z,26.90
2022-12-19T17:43:34.696Z,27.97
2022-12-19T17:46:06.135Z,27.47
2022-12-19T17:48:35.000Z,27.93
2022-12-19T17:51:04.418Z,30.03
2022-12-19T17:53:32.518Z,26.93
2022-12-19T17:56:00.540Z,29.70
2022-12-19T17:58:29.785Z,28.07
2022-12-19T18:00:59.925Z,32.03
2022-12-19T18:03:28.432Z,28.03
2022-12-19T18:05:59.024Z,28.50
2022-12-19T18:08:29.867Z,25.27
2022-12-19T18:11:01.790Z,24.30
2022-12-19T18:13:32.154Z,24.37
2022-12-19T18:16:04.058Z,24.03
2022-12-19T18:18:36.987Z,23.73
2022-12-19T18:21:05.826Z,22.63
2022-12-19T18:23:34.431Z,25.47
2022-12-19T18:26:03.068Z,29.80
2022-12-19T18:28:31.744Z,25.23
2022-12-19T18:31:05.120Z,28.67
2022-12-19T18:33:39.421Z,26.93
2022-12-19T18:36:15.976Z,21.83
2022-12-19T18:38:44.018Z,25.43
2022-12-19T18:41:13.465Z,23.90
2022-12-19T18:43:41.612Z,25.37
2022-12-19T18:46:15.685Z,25.87
2022-12-19T18:48:46.090Z,27.17
2022-12-19T18:51:18.103Z,25.17
2022-12-19T18:53:48.790Z,24.27
2022-12-19T18:56:17.114Z,23.90
2022-12-19T18:58:45.213Z,25.97
2022-12-19T19:01:18.692Z,26.00
2022-12-19T19:03:54.853Z,21.63
2022-12-19T19:06:26.641Z,27.33
2022-12-19T19:08:56.718Z,24.07
2022-12-19T19:11:25.981Z,23.67
2022-12-19T19:13:54.660Z,24.13
2022-12-19T19:16:26.999Z,22.47
2022-12-19T19:18:59.467Z,25.43
2022-12-19T19:21:33.341Z,22.97
2022-12-19T19:24:08.898Z,23.60
2022-12-19T19:26:37.104Z,22.30
2022-12-19T19:29:06.762Z,24.47
2022-12-19T19:31:41.807Z,22.23
2022-12-19T19:34:14.938Z,21.43
2022-12-19T19:36:49.381Z,22.67
2022-12-19T19:39:19.731Z,21.40
2022-12-19T19:41:47.874Z,21.90
2022-12-19T19:44:16.064Z,22.13
2022-12-19T19:46:46.105Z,20.33
2022-12-19T19:49:14.375Z,20.73
2022-12-19T19:51:42.794Z,21.87
2022-12-19T19:54:10.908Z,21.90
2022-12-19T19:56:39.322Z,20.27
2022-12-19T19:59:07.729Z,20.17
2022-12-19T20:01:36.005Z,19.07
2022-12-19T20:04:06.141Z,19.53
2022-12-19T20:06:34.915Z,21.90
2022-12-19T20:09:03.061Z,21.77
2022-12-19T20:11:31.538Z,18.80
2022-12-19T20:13:59.705Z,21.93
2022-12-19T20:16:28.059Z,20.67
2022-12-19T20:18:56.272Z,20.10
2022-12-19T20:21:25.770Z,20.07
2022-12-19T20:23:54.260Z,19.93
2022-12-19T20:26:22.454Z,21.57
2022-12-19T20:28:52.272Z,17.73
2022-12-19T20:31:23.529Z,20.93
2022-12-19T20:33:53.077Z,22.23
2022-12-19T20:36:21.666Z,17.73
2022-12-19T20:38:51.673Z,17.37
2022-12-19T20:41:20.255Z,18.33
2022-12-19T20:43:49.366Z,20.20
2022-12-19T20:46:20.110Z,18.57
2022-12-19T20:48:50.122Z,18.80
2022-12-19T20:51:20.891Z,18.50
2022-12-19T20:53:53.985Z,18.63
2022-12-19T20:56:25.768Z,18.80
2022-12-19T20:58:53.998Z,19.00
2022-12-19T21:01:25.384Z,16.77
2022-12-19T21:03:54.388Z,18.87
2022-12-19T21:06:25.295Z,18.20
2022-12-19T21:08:55.503Z,16.37
2022-12-19T21:11:26.136Z,15.07
2022-12-19T21:13:54.635Z,17.70
2022-12-19T21:16:24.951Z,17.03
2022-12-19T21:18:53.374Z,15.97
2022-12-19T21:21:25.251Z,16.83
2022-12-19T21:23:56.337Z,19.83
2022-12-19T21:26:26.579Z,18.03
2022-12-19T21:28:57.749Z,17.73
2022-12-19T21:31:29.646Z,17.47
2022-12-19T21:34:00.311Z,18.07
2022-12-19T21:36:30.260Z,17.40
2022-12-19T21:39:02.498Z,18.17
2022-12-19T21:41:31.291Z,16.73
2022-12-19T21:44:00.602Z,14.53
2022-12-19T21:46:32.985Z,17.60
2022-12-19T21:49:02.880Z,15.67
2022-12-19T21:51:32.921Z,16.27
2022-12-19T21:54:04.938Z,16.30
2022-12-19T21:56:36.605Z,16.93
2022-12-19T21:59:08.901Z,19.20
2022-12-19T22:01:37.254Z,15.57
2022-12-19T22:04:08.176Z,17.30
2022-12-19T22:06:38.585Z,15.37
2022-12-19T22:09:13.366Z,17.73
2022-12-19T22:11:41.837Z,16.37
2022-12-19T22:14:13.855Z,15.50
2022-12-19T22:16:42.789Z,14.17
2022-12-19T22:19:15.517Z,15.63
2022-12-19T22:21:44.149Z,17.60
2022-12-19T22:24:16.173Z,16.87
2022-12-19T22:26:45.011Z,16.57
2022-12-19T22:29:17.584Z,14.80
2022-12-19T22:31:46.888Z,15.83
2022-12-19T22:34:18.118Z,17.93
2022-12-19T22:36:47.686Z,14.70
2022-12-19T22:39:20.015Z,16.67
2022-12-19T22:41:48.495Z,16.67
2022-12-19T22:44:19.400Z,15.63
2022-12-19T22:46:48.275Z,15.07
2022-12-19T22:49:16.859Z,16.23
2022-12-19T22:51:45.572Z,16.30
2022-12-19T22:54:16.133Z,14.27
2022-12-19T22:56:44.370Z,15.97
2022-12-19T22:59:13.496Z,15.83
2022-12-19T23:01:44.195Z,15.60
2022-12-19T23:04:16.421Z,15.43
2022-12-19T23:06:45.589Z,16.83
2022-12-19T23:09:18.082Z,16.03
2022-12-19T23:11:49.576Z,14.47
2022-12-19T23:14:19.954Z,14.27
2022-12-19T23:16:49.501Z,12.47
2022-12-19T23:19:18.919Z,13.93
2022-12-19T23:21:47.666Z,12.40
2022-12-19T23:24:17.174Z,14.67
2022-12-19T23:26:45.435Z,14.57
2022-12-19T23:29:16.312Z,14.97
2022-12-19T23:31:47.472Z,14.03
2022-12-19T23:34:16.880Z,14.57
2022-12-19T23:37:10.247Z,12.53
2022-12-19T23:39:34.941Z,14.37
2022-12-19T23:42:03.112Z,12.10
2022-12-19T23:44:31.479Z,12.00
2022-12-19T23:47:03.431Z,12.93
2022-12-19T23:49:32.553Z,14.07
2022-12-19T23:52:00.732Z,15.10
2022-12-19T23:54:29.336Z,14.47
2022-12-19T23:56:58.911Z,13.97
2022-12-19T23:59:27.036Z,14.90
